Time,TemperatureF,DewpointF,PressureIn,WindDirection,WindDirectionDegrees,WindSpeedMPH,WindSpeedGustMPH,Humidity,HourlyPrecipIn,Conditions,Clouds,dailyrainin,SoftwareType,DateUTC
2013-12-22 00:22:00,40.0,38.0,-100.00,WNW,298,3.0,6.0,92,0.00,,,-99.99,,2013-12-22 08:22:00,
2013-12-22 00:32:00,40.0,38.0,-100.00,WNW,298,3.0,6.0,92,0.00,,,-99.99,,2013-12-22 08:32:00,
2013-12-22 00:42:00,40.0,38.0,-100.00,WNW,298,3.0,6.0,92,0.00,,,-99.99,,2013-12-22 08:42:00,
2013-12-22 01:21:00,39.0,36.0,-100.00,ENE,76,4.0,9.0,88,0.00,,,-99.99,,2013-12-22 09:21:00,
2013-12-22 01:33:00,39.0,36.0,-100.00,ENE,76,4.0,9.0,88,0.00,,,-99.99,,2013-12-22 09:33:00,
2013-12-22 01:43:00,39.0,36.0,-100.00,ENE,76,4.0,9.0,88,0.00,,,-99.99,,2013-12-22 09:43:00,
2013-12-22 02:23:00,38.0,34.0,-100.00,SSW,192,1.0,2.0,86,0.00,,,-99.99,,2013-12-22 10:23:00,
2013-12-22 02:33:00,38.0,34.0,-100.00,SSW,192,1.0,2.0,86,0.00,,,-99.99,,2013-12-22 10:33:00,
2013-12-22 02:42:00,38.0,34.0,-100.00,SSW,192,1.0,2.0,86,0.00,,,-99.99,,2013-12-22 10:42:00,
2013-12-22 03:22:00,37.0,36.0,-100.00,North,352,3.0,4.0,94,0.00,,,-99.99,,2013-12-22 11:22:00,
2013-12-22 03:33:00,37.0,36.0,-100.00,North,352,3.0,4.0,94,0.00,,,-99.99,,2013-12-22 11:33:00,
2013-12-22 03:42:00,37.0,36.0,-100.00,North,352,3.0,4.0,94,0.00,,,-99.99,,2013-12-22 11:42:00,
2013-12-22 04:22:00,37.0,34.0,-100.00,ESE,118,3.0,10.0,87,0.00,,,-99.99,,2013-12-22 12:22:00,
2013-12-22 04:32:00,37.0,34.0,-100.00,ESE,118,3.0,10.0,87,0.00,,,-99.99,,2013-12-22 12:32:00,
2013-12-22 04:42:00,37.0,34.0,-100.00,ESE,118,3.0,10.0,87,0.00,,,-99.99,,2013-12-22 12:42:00,
2013-12-22 05:21:00,39.0,36.0,-100.00,SSE,154,1.0,3.0,91,0.00,,,-99.99,,2013-12-22 13:21:00,
2013-12-22 05:31:00,39.0,36.0,-100.00,SSE,154,1.0,3.0,91,0.00,,,-99.99,,2013-12-22 13:31:00,
2013-12-22 05:42:00,39.0,36.0,-100.00,SSE,154,1.0,3.0,91,0.00,,,-99.99,,2013-12-22 13:42:00,
2013-12-22 06:21:00,37.0,35.0,-100.00,NNE,32,2.0,3.0,93,0.00,,,-99.99,,2013-12-22 14:21:00,
2013-12-22 06:32:00,37.0,35.0,-100.00,NNE,32,2.0,3.0,93,0.00,,,-99.99,,2013-12-22 14:32:00,
2013-12-22 06:42:00,37.0,35.0,-100.00,NNE,32,2.0,3.0,93,0.00,,,-99.99,,2013-12-22 14:42:00,
2013-12-22 07:22:00,36.0,33.0,-100.00,NNE,14,4.0,7.0,88,0.00,,,-99.99,,2013-12-22 15:22:00,
2013-12-22 07:33:00,36.0,33.0,-100.00,NNE,14,4.0,7.0,88,0.00,,,-99.99,,2013-12-22 15:33:00,
2013-12-22 07:43:00,36.0,33.0,-100.00,NNE,14,4.0,7.0,88,0.00,,,-99.99,,2013-12-22 15:43:00,
2013-12-22 08:23:00,37.0,35.0,-100.00,SSE,148,3.0,5.0,94,0.00,,,-99.99,,2013-12-22 16:23:00,
2013-12-22 08:33:00,37.0,35.0,-100.00,SSE,148,3.0,5.0,94,0.00,,,-99.99,,2013-12-22 16:33:00,
2013-12-22 08:42:00,37.0,35.0,-100.00,SSE,148,3.0,5.0,94,0.00,,,-99.99,,2013-12-22 16:42:00,
2013-12-22 09:22:00,41.0,36.0,-100.00,ENE,75,10.0,12.0,81,0.00,,,-99.99,,2013-12-22 17:22:00,
2013-12-22 09:33:00,41.0,36.0,-100.00,ENE,75,10.0,12.0,81,0.00,,,-99.99,,2013-12-22 17:33:00,
2013-12-22 09:42:00,41.0,36.0,-100.00,ENE,75,10.0,12.0,81,0.00,,,-99.99,,2013-12-22 17:42:00,
2013-12-22 10:21:00,44.0,37.0,-100.00,ENE,66,10.0,12.0,74,0.00,,,-99.99,,2013-12-22 18:21:00,
2013-12-22 10:33:00,44.0,37.0,-100.00,ENE,66,10.0,12.0,74,0.00,,,-99.99,,2013-12-22 18:33:00,
2013-12-22 10:42:00,44.0,37.0,-100.00,ENE,66,10.0,12.0,74,0.00,,,-99.99,,2013-12-22 18:42:00,
2013-12-22 11:21:00,52.0,35.0,-100.00,East,83,7.0,10.0,53,0.00,,,-99.99,,2013-12-22 19:21:00,
2013-12-22 11:31:00,52.0,35.0,-100.00,East,83,7.0,10.0,53,0.00,,,-99.99,,2013-12-22 19:31:00,
2013-12-22 11:42:00,52.0,35.0,-100.00,East,83,7.0,10.0,53,0.00,,,-99.99,,2013-12-22 19:42:00,
2013-12-22 12:22:00,55.0,36.0,-100.00,ESE,105,5.0,9.0,48,0.00,,,-99.99,,2013-12-22 20:22:00,
2013-12-22 12:32:00,55.0,36.0,-100.00,ESE,105,5.0,9.0,48,0.00,,,-99.99,,2013-12-22 20:32:00,
2013-12-22 12:42:00,55.0,36.0,-100.00,ESE,105,5.0,9.0,48,0.00,,,-99.99,,2013-12-22 20:42:00,
2013-12-22 13:22:00,58.0,36.0,-100.00,ENE,78,8.0,11.0,43,0.00,,,-99.99,,2013-12-22 21:22:00,
2013-12-22 13:33:00,58.0,36.0,-100.00,ENE,78,8.0,11.0,43,0.00,,,-99.99,,2013-12-22 21:33:00,
2013-12-22 13:43:00,58.0,36.0,-100.00,ENE,78,8.0,11.0,43,0.00,,,-99.99,,2013-12-22 21:43:00,
2013-12-22 14:23:00,61.0,36.0,-100.00,East,89,8.0,11.0,39,0.00,,,-99.99,,2013-12-22 22:23:00,
2013-12-22 14:33:00,61.0,36.0,-100.00,East,89,8.0,11.0,39,0.00,,,-99.99,,2013-12-22 22:33:00,
2013-12-22 14:42:00,61.0,36.0,-100.00,East,89,8.0,11.0,39,0.00,,,-99.99,,2013-12-22 22:42:00,
2013-12-22 15:22:00,61.0,36.0,-100.00,ESE,121,6.0,10.0,38,0.00,,,-99.99,,2013-12-22 23:22:00,
2013-12-22 15:33:00,61.0,36.0,-100.00,ESE,121,6.0,10.0,38,0.00,,,-99.99,,2013-12-22 23:33:00,
2013-12-22 15:42:00,61.0,36.0,-100.00,ESE,121,6.0,10.0,38,0.00,,,-99.99,,2013-12-22 23:42:00,
2013-12-22 16:22:00,61.0,35.0,-100.00,ESE,123,5.0,6.0,37,0.00,,,-99.99,,2013-12-23 00:22:00,
2013-12-22 16:32:00,61.0,35.0,-100.00,ESE,123,5.0,6.0,37,0.00,,,-99.99,,2013-12-23 00:32:00,
2013-12-22 16:42:00,61.0,35.0,-100.00,ESE,123,5.0,6.0,37,0.00,,,-99.99,,2013-12-23 00:42:00,
2013-12-22 17:22:00,57.0,38.0,-100.00,South,178,1.0,2.0,50,0.00,,,-99.99,,2013-12-23 01:22:00,
2013-12-22 17:32:00,57.0,38.0,-100.00,South,178,1.0,2.0,50,0.00,,,-99.99,,2013-12-23 01:32:00,
2013-12-22 17:42:00,57.0,38.0,-100.00,South,178,1.0,2.0,50,0.00,,,-99.99,,2013-12-23 01:42:00,
2013-12-22 18:21:00,52.0,38.0,-100.00,North,11,0.0,1.0,58,0.00,,,-99.99,,2013-12-23 02:21:00,
2013-12-22 18:32:00,52.0,38.0,-100.00,North,11,0.0,1.0,58,0.00,,,-99.99,,2013-12-23 02:32:00,
2013-12-22 18:42:00,52.0,38.0,-100.00,North,11,0.0,1.0,58,0.00,,,-99.99,,2013-12-23 02:42:00,
2013-12-22 19:22:00,50.0,37.0,-100.00,North,1,2.0,3.0,60,0.00,,,-99.99,,2013-12-23 03:22:00,
2013-12-22 19:33:00,50.0,37.0,-100.00,North,1,2.0,3.0,60,0.00,,,-99.99,,2013-12-23 03:33:00,
2013-12-22 19:43:00,50.0,37.0,-100.00,North,1,2.0,3.0,60,0.00,,,-99.99,,2013-12-23 03:43:00,
2013-12-22 20:23:00,48.0,38.0,-100.00,North,4,2.0,3.0,68,0.00,,,-99.99,,2013-12-23 04:23:00,
2013-12-22 20:33:00,48.0,38.0,-100.00,North,4,2.0,3.0,68,0.00,,,-99.99,,2013-12-23 04:33:00,
2013-12-22 20:43:00,48.0,38.0,-100.00,North,4,2.0,3.0,68,0.00,,,-99.99,,2013-12-23 04:43:00,
2013-12-22 21:23:00,45.0,40.0,-100.00,NNW,347,2.0,3.0,84,0.00,,,-99.99,,2013-12-23 05:23:00,
2013-12-22 21:33:00,45.0,40.0,-100.00,NNW,347,2.0,3.0,84,0.00,,,-99.99,,2013-12-23 05:33:00,
2013-12-22 21:43:00,45.0,40.0,-100.00,NNW,347,2.0,3.0,84,0.00,,,-99.99,,2013-12-23 05:43:00,
2013-12-22 22:22:00,44.0,39.0,-100.00,SE,124,4.0,7.0,81,0.00,,,-99.99,,2013-12-23 06:22:00,
2013-12-22 22:32:00,44.0,39.0,-100.00,SE,124,4.0,7.0,81,0.00,,,-99.99,,2013-12-23 06:32:00,
2013-12-22 22:42:00,44.0,39.0,-100.00,SE,124,4.0,7.0,81,0.00,,,-99.99,,2013-12-23 06:42:00,
2013-12-22 23:22:00,45.0,40.0,-100.00,SE,137,4.0,6.0,84,0.00,,,-99.99,,2013-12-23 07:22:00,
2013-12-22 23:32:00,45.0,40.0,-100.00,SE,137,4.0,6.0,84,0.00,,,-99.99,,2013-12-23 07:32:00,
2013-12-22 23:42:00,45.0,40.0,-100.00,SE,137,4.0,6.0,84,0.00,,,-99.99,,2013-12-23 07:42:00,